Time;durP1;ratioP1;P1;durP2;ratioP2;P2;SDS_P1;SDS_P2;PMS_P1;PMS_P2;Temp;Humidity;BMP_temperature;BMP_pressure;BME280_temperature;BME280_humidity;BME280_pressure;Samples;Min_cycle;Max_cycle;Signal;HPM_P1;HPM_P2
2021/07/05 06:28:40;;;;;;;9.37;5.87;;;13.30;99.90;;;;;;5106846;23;20438;-94
2021/07/05 07:02:08;;;;;;;3.78;3.05;;;14.30;99.90;;;;;;5393296;23;20399;-91
2021/07/05 07:12:06;;;;;;;3.65;2.72;;;14.60;99.90;;;;;;4806236;29;20492;-95
2021/07/05 07:15:38;;;;;;;5.57;2.50;;;14.80;99.90;;;;;;4807385;29;20416;-95
2021/07/05 07:21:36;;;;;;;7.30;2.40;;;14.90;99.90;;;;;;4865870;29;20425;-96
2021/07/05 07:24:11;;;;;;;3.78;2.10;;;15.10;99.90;;;;;;4855434;29;20682;-95
2021/07/05 07:26:38;;;;;;;4.55;2.05;;;15.20;99.90;;;;;;4847542;29;20438;-96
2021/07/05 07:29:05;;;;;;;4.75;2.10;;;15.20;99.90;;;;;;4847345;29;20448;-96
2021/07/05 07:31:32;;;;;;;3.65;1.92;;;15.20;99.90;;;;;;4848281;29;20464;-95
2021/07/05 07:33:59;;;;;;;3.30;1.75;;;15.30;99.90;;;;;;4847316;29;20441;-95
2021/07/05 07:36:27;;;;;;;3.28;1.90;;;15.30;99.90;;;;;;4847221;29;20792;-95
2021/07/05 07:39:00;;;;;;;4.13;1.98;;;15.30;99.90;;;;;;4847699;29;20495;-96
2021/07/05 07:41:31;;;;;;;5.53;1.80;;;15.50;99.90;;;;;;4848155;29;20441;-89
2021/07/05 07:43:58;;;;;;;3.17;1.75;;;15.60;99.90;;;;;;4863474;29;20502;-89
2021/07/05 07:46:26;;;;;;;3.28;1.90;;;15.70;99.90;;;;;;4849238;29;20486;-89
2021/07/05 07:48:53;;;;;;;4.40;1.80;;;15.70;99.90;;;;;;4863185;29;20446;-96
2021/07/05 07:51:20;;;;;;;4.18;1.55;;;15.90;99.90;;;;;;4848146;29;20440;-89
2021/07/05 07:53:49;;;;;;;4.65;1.63;;;16.20;99.90;;;;;;4846833;29;20434;-89
2021/07/05 07:56:16;;;;;;;4.53;1.55;;;16.40;99.90;;;;;;4846956;29;20447;-89
2021/07/05 07:58:46;;;;;;;4.15;1.75;;;16.40;99.90;;;;;;4847447;29;20429;-88
2021/07/05 08:01:13;;;;;;;2.17;1.30;;;16.60;99.90;;;;;;4847007;29;20418;-90
2021/07/05 08:03:40;;;;;;;5.95;1.58;;;16.60;99.90;;;;;;4847157;29;20461;-89
2021/07/05 08:06:07;;;;;;;8.50;1.70;;;16.80;99.90;;;;;;4846336;29;20449;-91
2021/07/05 08:08:34;;;;;;;3.22;1.50;;;16.90;99.90;;;;;;4847587;29;20429;-90
2021/07/05 08:11:02;;;;;;;5.63;1.63;;;17.00;99.90;;;;;;4863471;29;20813;-90
2021/07/05 08:13:29;;;;;;;3.40;1.50;;;17.00;99.90;;;;;;4848215;29;20434;-89
2021/07/05 08:15:56;;;;;;;2.30;1.50;;;16.90;99.90;;;;;;4848256;29;20438;-89
2021/07/05 08:18:23;;;;;;;4.97;1.80;;;16.70;99.90;;;;;;4849431;29;20441;-89
2021/07/05 08:20:50;;;;;;;7.28;1.70;;;16.90;99.90;;;;;;4844432;29;20486;-90
2021/07/05 08:23:18;;;;;;;5.20;1.80;;;17.00;99.90;;;;;;4846323;29;20468;-90
2021/07/05 08:25:45;;;;;;;5.75;1.55;;;16.90;99.90;;;;;;4843521;29;20513;-90
2021/07/05 08:28:13;;;;;;;5.50;1.60;;;16.90;99.90;;;;;;4844327;29;20432;-96
2021/07/05 08:30:40;;;;;;;3.55;1.40;;;17.00;99.90;;;;;;4843176;29;20824;-95
2021/07/05 08:33:08;;;;;;;3.42;1.30;;;17.00;99.90;;;;;;4844005;29;20444;-91
2021/07/05 08:35:36;;;;;;;2.15;1.30;;;16.90;99.90;;;;;;4843941;29;20523;-90
2021/07/05 08:38:04;;;;;;;6.00;1.70;;;16.80;99.90;;;;;;4844688;29;20575;-90
2021/07/05 08:40:31;;;;;;;4.15;1.60;;;16.80;99.90;;;;;;4843087;29;20440;-89
2021/07/05 08:42:59;;;;;;;3.58;1.60;;;16.80;99.90;;;;;;4843600;29;20440;-91
2021/07/05 08:45:26;;;;;;;3.92;1.50;;;17.00;99.90;;;;;;4837348;29;20855;-89
2021/07/05 08:47:55;;;;;;;1.80;1.40;;;17.10;99.90;;;;;;4844355;29;20953;-90
2021/07/05 08:50:25;;;;;;;2.70;1.20;;;17.00;99.90;;;;;;4843361;29;20460;-90
2021/07/05 08:52:52;;;;;;;5.65;1.40;;;17.10;99.90;;;;;;4844879;29;20783;-90
2021/07/05 08:55:22;;;;;;;2.85;1.05;;;17.20;99.90;;;;;;4844081;29;20881;-89
2021/07/05 08:57:49;;;;;;;2.92;1.15;;;17.20;99.90;;;;;;4843626;29;20828;-90
2021/07/05 09:00:27;;;;;;;4.63;1.30;;;17.40;99.90;;;;;;4847396;29;20443;-95
2021/07/05 09:02:57;;;;;;;4.47;1.27;;;17.40;99.90;;;;;;4843712;29;20443;-91
2021/07/05 09:05:24;;;;;;;1.90;1.40;;;17.30;99.90;;;;;;4842751;29;20446;-96
2021/07/05 09:08:05;;;;;;;2.33;1.13;;;17.20;99.90;;;;;;4843096;29;20456;-95
2021/07/05 09:10:55;;;;;;;3.08;1.08;;;17.40;99.90;;;;;;4843992;29;20451;-95
2021/07/05 09:13:27;;;;;;;2.57;1.13;;;17.60;99.90;;;;;;4843114;29;20519;-95
2021/07/05 09:15:58;;;;;;;3.85;1.30;;;17.70;99.90;;;;;;4842833;29;20447;-96
2021/07/05 09:18:42;;;;;;;2.43;1.23;;;17.80;99.90;;;;;;4842782;29;20910;-96
2021/07/05 09:21:24;;;;;;;2.08;1.33;;;18.30;99.90;;;;;;4825216;29;20436;-92
2021/07/05 09:24:36;;;;;;;2.70;1.17;;;18.30;99.90;;;;;;4821607;29;20792;-95
2021/07/05 09:27:37;;;;;;;2.63;1.20;;;18.00;99.90;;;;;;4836642;29;20434;-93
2021/07/05 09:30:21;;;;;;;3.40;1.10;;;18.00;99.90;;;;;;4826398;29;20442;-96
2021/07/05 09:33:25;;;;;;;3.63;1.23;;;18.20;99.90;;;;;;4830850;29;20473;-96
2021/07/05 09:36:32;;;;;;;1.95;1.25;;;18.10;99.90;;;;;;4826243;29;20410;-96
2021/07/05 09:40:23;;;;;;;3.13;1.42;;;18.00;99.90;;;;;;4838291;29;20569;-94
2021/07/05 09:43:25;;;;;;;2.97;1.30;;;17.90;99.90;;;;;;4839402;29;20437;-96
2021/07/05 10:07:11;;;;;;;1.58;1.20;;;18.70;99.90;;;;;;5542713;23;20529;-93
2021/07/05 10:09:47;;;;;;;3.25;1.10;;;19.00;99.90;;;;;;4849638;29;20450;-94
2021/07/05 10:12:30;;;;;;;6.40;1.20;;;18.90;99.90;;;;;;4849578;29;20430;-94
2021/07/05 10:15:11;;;;;;;2.95;1.20;;;18.80;99.90;;;;;;4848940;29;20505;-94
2021/07/05 10:17:46;;;;;;;2.10;1.08;;;18.70;99.90;;;;;;4849408;29;20462;-94
2021/07/05 10:20:21;;;;;;;10.07;1.10;;;18.90;99.90;;;;;;4849102;29;20478;-94
2021/07/05 10:22:52;;;;;;;2.35;0.98;;;19.10;99.90;;;;;;4849124;29;20908;-94
2021/07/05 10:25:20;;;;;;;4.53;0.90;;;19.00;99.90;;;;;;4866015;29;20421;-94
2021/07/05 10:27:47;;;;;;;1.73;1.10;;;18.80;99.90;;;;;;4855269;29;20446;-95
2021/07/05 10:30:16;;;;;;;5.35;1.20;;;18.80;99.90;;;;;;4848760;29;20450;-96
2021/07/05 10:32:45;;;;;;;1.75;1.20;;;18.80;99.90;;;;;;4849287;29;20450;-94
2021/07/05 10:35:19;;;;;;;4.90;1.27;;;18.90;99.90;;;;;;4849437;29;20446;-95
2021/07/05 10:38:05;;;;;;;6.87;1.10;;;19.30;99.90;;;;;;4848450;29;20436;-95
2021/07/05 10:40:39;;;;;;;4.80;1.10;;;19.80;99.90;;;;;;4848933;29;20525;-94
2021/07/05 10:43:14;;;;;;;3.42;1.10;;;20.00;99.90;;;;;;4849072;29;20438;-94
2021/07/05 10:45:46;;;;;;;4.72;1.10;;;20.00;99.90;;;;;;4849056;29;20488;-95
2021/07/05 10:48:39;;;;;;;2.65;1.10;;;20.10;99.90;;;;;;4851278;29;20434;-96
2021/07/05 10:51:09;;;;;;;3.43;1.00;;;20.30;99.90;;;;;;4835527;29;20518;-94
2021/07/05 10:53:44;;;;;;;2.63;0.80;;;20.30;99.90;;;;;;4848193;29;20430;-96
2021/07/05 10:56:31;;;;;;;5.72;1.38;;;20.20;99.90;;;;;;4849928;29;20501;-96
2021/07/05 10:59:24;;;;;;;3.50;0.90;;;20.30;99.90;;;;;;4851740;29;20441;-96
2021/07/05 11:01:57;;;;;;;1.77;0.87;;;20.50;99.90;;;;;;4843235;29;20494;-96
2021/07/05 11:04:29;;;;;;;2.30;0.90;;;20.80;99.90;;;;;;4853531;29;20469;-94
2021/07/05 11:07:16;;;;;;;2.20;1.00;;;21.00;99.90;;;;;;4855816;29;20450;-96
2021/07/05 11:09:57;;;;;;;3.50;0.95;;;20.90;99.90;;;;;;4855804;29;20527;-95
2021/07/05 11:12:34;;;;;;;1.42;0.90;;;20.90;99.90;;;;;;4856949;29;20457;-96
2021/07/05 11:15:04;;;;;;;1.35;0.70;;;21.00;99.90;;;;;;4867809;23;20440;-94
2021/07/05 11:17:37;;;;;;;7.63;0.90;;;20.80;99.90;;;;;;4875781;29;20442;-95
2021/07/05 11:20:16;;;;;;;1.80;0.90;;;20.60;99.90;;;;;;4872856;29;20448;-94
2021/07/05 11:22:56;;;;;;;4.75;1.25;;;20.90;99.90;;;;;;4878762;29;20441;-95
2021/07/05 11:25:32;;;;;;;1.20;0.73;;;21.00;99.90;;;;;;4877804;29;20496;-96
2021/07/05 11:28:03;;;;;;;3.00;0.90;;;20.60;99.90;;;;;;4877013;29;20429;-96
2021/07/05 11:30:45;;;;;;;3.97;1.15;;;20.40;99.90;;;;;;4872016;29;20471;-96
2021/07/05 11:33:30;;;;;;;2.75;1.00;;;20.60;99.90;;;;;;4878213;29;20500;-96
2021/07/05 11:36:02;;;;;;;1.45;0.88;;;20.60;99.90;;;;;;4869540;29;20515;-96
2021/07/05 11:38:32;;;;;;;2.50;0.98;;;20.40;99.90;;;;;;4868965;29;20436;-95
2021/07/05 11:41:11;;;;;;;2.40;0.80;;;20.20;99.90;;;;;;4868041;29;20436;-96
2021/07/05 11:44:15;;;;;;;1.83;0.80;;;20.20;99.90;;;;;;4868047;29;20512;-95
2021/07/05 11:46:46;;;;;;;3.80;0.90;;;20.30;99.90;;;;;;4870333;29;20436;-95
2021/07/05 11:49:23;;;;;;;1.50;0.85;;;20.50;99.90;;;;;;4859771;29;20440;-96
2021/07/05 11:51:57;;;;;;;2.60;0.80;;;20.50;99.90;;;;;;4867880;29;20505;-94
2021/07/05 11:54:32;;;;;;;4.47;0.82;;;20.50;99.90;;;;;;4865708;29;20444;-94
2021/07/05 11:57:06;;;;;;;1.52;0.60;;;20.70;99.90;;;;;;4867404;29;20936;-96
2021/07/05 11:59:37;;;;;;;2.92;0.90;;;21.00;99.90;;;;;;4866765;29;20519;-95
2021/07/05 12:02:12;;;;;;;4.95;1.00;;;21.30;99.90;;;;;;4866149;29;20442;-96
2021/07/05 12:04:45;;;;;;;2.67;0.80;;;21.60;99.90;;;;;;4878282;29;20467;-95
2021/07/05 12:07:16;;;;;;;2.40;0.80;;;21.50;99.90;;;;;;4876796;29;20426;-95
2021/07/05 12:09:44;;;;;;;2.35;0.70;;;21.30;99.90;;;;;;4866377;29;20960;-96
2021/07/05 12:12:21;;;;;;;2.07;1.00;;;21.30;99.90;;;;;;4867092;29;20441;-96
2021/07/05 12:14:51;;;;;;;2.17;0.70;;;21.50;99.90;;;;;;4866283;29;20441;-95
2021/07/05 12:17:20;;;;;;;2.03;1.00;;;21.60;99.90;;;;;;4866108;29;20501;-95
2021/07/05 12:19:52;;;;;;;8.82;1.50;;;21.70;99.90;;;;;;4866158;29;20471;-96
2021/07/05 12:22:27;;;;;;;2.25;0.80;;;21.60;99.90;;;;;;4884240;29;20437;-96
2021/07/05 12:24:57;;;;;;;2.70;0.70;;;21.80;99.90;;;;;;4867454;29;20901;-96
2021/07/05 12:27:35;;;;;;;1.48;0.95;;;22.20;99.90;;;;;;4866855;29;20429;-96
2021/07/05 12:30:35;;;;;;;2.70;0.73;;;22.60;99.90;;;;;;4868499;29;20532;-96
2021/07/05 12:33:07;;;;;;;1.90;0.85;;;22.70;99.90;;;;;;4868882;29;20503;-95
2021/07/05 12:35:39;;;;;;;3.83;0.85;;;22.90;99.90;;;;;;4867115;29;20432;-95
2021/07/05 12:38:27;;;;;;;5.13;0.83;;;23.40;99.90;;;;;;4869028;29;20444;-96
2021/07/05 12:41:30;;;;;;;3.75;1.17;;;23.40;99.90;;;;;;4871024;29;20417;-96
2021/07/05 12:47:18;;;;;;;3.38;0.70;;;23.40;99.90;;;;;;5091415;23;20943;-94
2021/07/05 12:49:46;;;;;;;4.40;0.70;;;24.10;99.90;;;;;;4846181;29;20438;-93
2021/07/05 12:52:13;;;;;;;2.20;0.80;;;23.80;99.90;;;;;;4846020;29;20445;-94
2021/07/05 12:54:40;;;;;;;2.70;0.90;;;23.50;99.90;;;;;;4845853;29;20438;-95
2021/07/05 12:57:11;;;;;;;1.27;0.60;;;23.00;99.90;;;;;;4845810;29;20438;-94
2021/07/05 12:59:41;;;;;;;2.13;0.60;;;22.50;99.90;;;;;;4845934;29;20987;-95
2021/07/05 13:02:29;;;;;;;5.07;1.00;;;22.30;99.90;;;;;;4846296;29;20434;-94
2021/07/05 13:05:14;;;;;;;1.73;0.73;;;22.00;99.90;;;;;;4846148;29;20430;-96
2021/07/05 13:07:59;;;;;;;1.77;0.90;;;21.60;99.90;;;;;;4847722;29;20474;-96
2021/07/05 13:10:41;;;;;;;1.73;0.90;;;21.10;99.90;;;;;;4845571;29;20449;-96
2021/07/05 13:13:13;;;;;;;3.20;0.73;;;21.00;99.90;;;;;;4845632;29;20442;-94
2021/07/05 13:15:54;;;;;;;2.60;0.90;;;20.80;99.90;;;;;;4845550;29;20441;-92
2021/07/05 13:19:05;;;;;;;3.00;0.70;;;20.80;99.90;;;;;;4942722;23;20597;-94
2021/07/05 13:22:25;;;;;;;3.00;0.80;;;20.90;99.90;;;;;;4861336;29;20510;-95
2021/07/05 13:25:21;;;;;;;2.60;0.80;;;21.00;99.90;;;;;;4842530;29;20492;-96
2021/07/05 13:28:15;;;;;;;1.88;0.75;;;20.90;99.90;;;;;;4855289;29;20503;-95
2021/07/05 13:31:52;;;;;;;3.83;0.90;;;20.70;99.90;;;;;;4807746;29;20508;-96
2021/07/05 13:35:16;;;;;;;1.10;0.70;;;20.60;99.90;;;;;;4815923;29;20435;-95
2021/07/05 13:38:29;;;;;;;1.58;0.80;;;21.70;99.90;;;;;;4798627;29;20446;-94
2021/07/05 13:49:21;;;;;;;1.10;0.77;;;26.00;99.90;;;;;;4870717;29;20446;-96
2021/07/05 13:52:37;;;;;;;1.65;0.65;;;25.60;97.70;;;;;;4840165;29;20462;-95
2021/07/05 13:55:42;;;;;;;2.53;0.70;;;24.70;97.70;;;;;;4826720;29;20438;-95
2021/07/05 13:59:10;;;;;;;1.38;0.70;;;23.80;99.90;;;;;;4861413;29;20447;-96
2021/07/05 14:02:16;;;;;;;6.63;0.70;;;23.50;98.90;;;;;;4860425;29;20488;-96
2021/07/05 14:04:49;;;;;;;1.88;0.70;;;23.40;99.90;;;;;;4842017;29;20570;-96
2021/07/05 14:07:46;;;;;;;1.95;0.70;;;23.70;99.90;;;;;;4857074;29;20463;-95
2021/07/05 14:14:05;;;;;;;3.55;0.70;;;25.30;96.90;;;;;;4836449;29;20531;-96
2021/07/05 14:17:28;;;;;;;1.10;0.60;;;25.60;97.00;;;;;;4847493;29;20420;-95
2021/07/05 14:20:47;;;;;;;2.50;0.70;;;25.80;97.40;;;;;;4839369;29;20415;-95
2021/07/05 14:23:15;;;;;;;4.20;0.80;;;26.60;93.40;;;;;;4826183;29;20436;-93
2021/07/05 14:25:48;;;;;;;4.57;0.88;;;26.80;93.70;;;;;;4826969;29;20523;-94
2021/07/05 14:28:19;;;;;;;2.80;0.60;;;26.50;90.30;;;;;;4827310;29;20456;-96
2021/07/05 14:30:48;;;;;;;2.60;0.50;;;26.00;92.40;;;;;;4829470;29;20458;-94
2021/07/05 14:33:15;;;;;;;1.45;0.60;;;25.30;92.50;;;;;;4830612;29;20424;-92
2021/07/05 14:35:43;;;;;;;4.90;0.73;;;24.70;93.30;;;;;;4829266;29;20432;-93
2021/07/05 14:38:12;;;;;;;9.07;1.38;;;24.30;93.30;;;;;;4815002;29;20474;-93
2021/07/05 14:40:40;;;;;;;1.88;0.50;;;24.40;93.30;;;;;;4921970;23;20949;-93
2021/07/05 14:43:08;;;;;;;3.10;0.70;;;24.90;91.90;;;;;;4829812;29;20459;-95
2021/07/05 14:45:35;;;;;;;1.67;0.60;;;25.60;90.90;;;;;;4830905;29;20914;-94
2021/07/05 14:48:02;;;;;;;4.38;0.90;;;26.60;92.30;;;;;;4829471;29;20451;-95
2021/07/05 14:50:31;;;;;;;2.65;0.70;;;27.40;88.00;;;;;;4829235;29;20443;-96
2021/07/05 14:53:00;;;;;;;5.23;0.70;;;27.70;82.40;;;;;;4830389;29;20432;-96
2021/07/05 14:55:28;;;;;;;3.22;0.55;;;27.20;82.00;;;;;;4831679;29;20446;-95
2021/07/05 14:57:56;;;;;;;2.00;0.50;;;26.40;83.90;;;;;;4830790;29;20447;-96
2021/07/05 15:00:27;;;;;;;2.47;0.60;;;26.20;88.00;;;;;;4829573;29;20531;-96
2021/07/05 15:02:54;;;;;;;3.30;0.50;;;26.90;93.00;;;;;;4830501;29;20451;-93
2021/07/05 15:05:23;;;;;;;2.03;0.63;;;27.50;86.70;;;;;;4832298;29;20847;-96
2021/07/05 15:07:51;;;;;;;2.67;0.60;;;28.00;79.80;;;;;;4833261;29;20981;-96
2021/07/05 15:10:19;;;;;;;2.20;0.60;;;28.40;79.10;;;;;;4832668;29;20439;-91
2021/07/05 15:12:50;;;;;;;1.10;0.40;;;27.80;76.20;;;;;;4830168;29;20432;-91
2021/07/05 15:15:18;;;;;;;2.97;0.60;;;27.20;76.30;;;;;;4830192;29;20492;-94
2021/07/05 15:17:45;;;;;;;3.47;0.50;;;27.00;74.40;;;;;;4829459;29;20522;-89
2021/07/05 15:20:16;;;;;;;1.40;0.50;;;26.40;78.30;;;;;;4829188;29;20428;-90
2021/07/05 15:22:44;;;;;;;2.13;0.70;;;25.80;81.60;;;;;;4844238;29;20459;-90
2021/07/05 15:25:12;;;;;;;17.23;1.48;;;26.20;84.40;;;;;;4845579;29;20442;-90
2021/07/05 15:27:43;;;;;;;3.88;0.70;;;26.60;79.10;;;;;;4829492;29;20841;-90
2021/07/05 15:30:11;;;;;;;3.22;0.50;;;26.60;80.10;;;;;;4828723;29;20439;-91
2021/07/05 15:32:38;;;;;;;17.45;1.52;;;26.70;76.40;;;;;;4828490;29;20455;-90
2021/07/05 15:35:11;;;;;;;57.33;2.67;;;26.70;80.60;;;;;;4829863;29;20746;-90
2021/07/05 15:37:42;;;;;;;1.85;0.50;;;26.20;79.30;;;;;;4829995;29;20443;-92
2021/07/05 15:40:10;;;;;;;1.80;0.50;;;25.90;80.40;;;;;;4825844;29;20854;-90
2021/07/05 15:42:37;;;;;;;4.80;0.82;;;25.90;83.90;;;;;;4825376;29;20502;-90
2021/07/05 15:45:06;;;;;;;0.70;0.70;;;25.60;81.70;;;;;;4825474;29;20453;-89
2021/07/05 15:47:37;;;;;;;1.80;0.60;;;24.90;81.00;;;;;;4825365;29;20505;-89
2021/07/05 15:50:05;;;;;;;0.90;0.47;;;24.30;84.90;;;;;;4825181;29;20445;-89
2021/07/05 15:52:32;;;;;;;0.90;0.60;;;24.00;88.10;;;;;;4825455;29;20529;-88
2021/07/05 15:54:59;;;;;;;10.23;0.70;;;23.80;86.70;;;;;;4825668;29;20430;-92
2021/07/05 15:57:27;;;;;;;3.80;0.60;;;23.50;85.10;;;;;;4825727;29;20434;-91
2021/07/05 16:00:11;;;;;;;0.90;0.60;;;23.20;88.20;;;;;;4827180;29;20437;-91
2021/07/05 16:02:42;;;;;;;0.80;0.60;;;23.00;89.50;;;;;;4825762;29;20782;-91
2021/07/05 16:05:11;;;;;;;2.22;0.57;;;23.00;92.30;;;;;;4825941;29;20426;-91
2021/07/05 16:07:39;;;;;;;0.80;0.60;;;22.80;90.30;;;;;;4825132;29;20434;-91
2021/07/05 16:10:06;;;;;;;0.95;0.60;;;22.60;91.60;;;;;;4825568;29;20442;-91
2021/07/05 16:12:34;;;;;;;1.05;0.63;;;22.30;90.60;;;;;;4826349;29;20462;-91
2021/07/05 16:15:01;;;;;;;1.55;0.60;;;22.00;91.70;;;;;;4825483;29;20432;-90
2021/07/05 16:17:28;;;;;;;1.17;0.60;;;21.70;92.60;;;;;;4825477;29;20434;-90
2021/07/05 16:19:55;;;;;;;1.67;0.70;;;21.40;94.20;;;;;;4825094;29;20852;-91
2021/07/05 16:22:23;;;;;;;2.40;0.65;;;21.30;94.50;;;;;;4825028;29;20441;-90
2021/07/05 16:24:51;;;;;;;1.70;0.73;;;21.10;95.50;;;;;;4826220;29;20770;-90
2021/07/05 16:27:19;;;;;;;6.47;0.60;;;20.90;95.40;;;;;;4825335;29;20429;-91
2021/07/05 16:29:47;;;;;;;2.47;0.77;;;20.80;96.20;;;;;;4825646;29;20506;-91
2021/07/05 16:32:14;;;;;;;1.02;0.60;;;20.70;96.50;;;;;;4824989;29;20461;-90
2021/07/05 16:34:42;;;;;;;2.85;0.70;;;20.60;97.00;;;;;;4824733;29;20476;-90
2021/07/05 16:37:09;;;;;;;2.97;0.80;;;20.50;97.80;;;;;;4824661;29;20449;-90
2021/07/05 16:39:37;;;;;;;2.95;0.77;;;20.50;99.60;;;;;;4826063;29;20445;-90
2021/07/05 16:42:04;;;;;;;1.80;0.80;;;20.40;99.90;;;;;;4843500;29;20828;-91
2021/07/05 16:44:31;;;;;;;2.42;0.80;;;20.30;99.60;;;;;;4844323;29;20592;-91
2021/07/05 16:47:00;;;;;;;1.65;0.70;;;20.30;99.90;;;;;;4827788;29;20436;-91
2021/07/05 16:49:30;;;;;;;5.93;0.60;;;20.30;99.90;;;;;;4827438;29;20440;-90
2021/07/05 16:52:16;;;;;;;1.27;0.60;;;20.30;99.90;;;;;;4843337;29;20463;-90
2021/07/05 16:54:43;;;;;;;2.63;0.70;;;20.30;99.90;;;;;;4827451;29;20451;-90
2021/07/05 16:57:18;;;;;;;1.88;0.63;;;20.30;99.90;;;;;;4829953;29;20496;-93
2021/07/05 17:00:10;;;;;;;2.13;0.80;;;20.20;99.90;;;;;;4843930;29;20432;-91
2021/07/05 17:02:53;;;;;;;4.00;0.70;;;20.10;99.90;;;;;;4843460;29;20926;-95
2021/07/05 17:05:22;;;;;;;2.13;0.70;;;20.10;99.90;;;;;;4844999;29;20436;-92
2021/07/05 17:23:25;;;;;;;3.30;0.80;;;20.40;99.90;;;;;;4897183;29;20448;-96
2021/07/05 17:26:11;;;;;;;2.47;0.60;;;20.40;99.90;;;;;;4881260;29;20432;-96
2021/07/05 17:28:51;;;;;;;0.90;0.70;;;20.30;99.90;;;;;;4881584;29;20443;-96
2021/07/05 17:31:25;;;;;;;2.95;0.70;;;21.00;99.90;;;;;;4863440;29;20457;-96
2021/07/05 17:34:21;;;;;;;2.88;0.70;;;22.10;99.60;;;;;;4891723;29;20496;-96
2021/07/05 17:36:55;;;;;;;3.58;0.73;;;22.90;98.70;;;;;;4875437;29;20439;-96
2021/07/05 17:39:22;;;;;;;0.88;0.60;;;23.00;96.80;;;;;;4867631;29;20523;-96
2021/07/05 17:41:50;;;;;;;9.73;0.90;;;22.30;97.20;;;;;;4867200;29;20499;-96
2021/07/05 17:44:18;;;;;;;3.15;0.70;;;21.70;98.10;;;;;;4882027;29;20472;-95
2021/07/05 17:46:45;;;;;;;3.17;0.65;;;21.00;98.80;;;;;;4865324;29;20521;-94
2021/07/05 17:49:13;;;;;;;2.00;0.70;;;20.60;99.90;;;;;;4866167;29;20436;-96
2021/07/05 17:51:40;;;;;;;1.55;0.60;;;20.30;99.90;;;;;;4867720;29;20449;-96
2021/07/05 17:54:10;;;;;;;3.40;0.65;;;20.10;99.90;;;;;;4867896;29;20493;-96
2021/07/05 17:56:40;;;;;;;3.10;0.75;;;19.90;99.90;;;;;;4872154;29;20508;-96
2021/07/05 17:59:07;;;;;;;2.05;0.60;;;19.80;99.90;;;;;;4869233;29;20980;-94
2021/07/05 18:01:34;;;;;;;1.90;0.65;;;19.70;99.90;;;;;;4864320;29;20443;-90
2021/07/05 18:04:01;;;;;;;1.17;0.90;;;19.60;99.90;;;;;;4865976;29;20519;-91
2021/07/05 18:06:28;;;;;;;0.90;0.60;;;19.50;99.90;;;;;;4867475;29;20960;-90
2021/07/05 18:08:55;;;;;;;1.17;0.60;;;19.40;99.90;;;;;;4867800;29;20705;-93
2021/07/05 18:11:23;;;;;;;4.93;0.67;;;19.40;99.90;;;;;;4867156;29;20440;-96
2021/07/05 18:13:50;;;;;;;2.03;0.70;;;19.30;99.90;;;;;;4867554;29;20914;-91
2021/07/05 18:16:17;;;;;;;0.88;0.50;;;19.20;99.90;;;;;;4867539;29;20521;-94
2021/07/05 18:18:46;;;;;;;3.60;0.70;;;19.20;99.90;;;;;;4867777;29;20433;-94
2021/07/05 18:21:13;;;;;;;3.35;0.70;;;19.20;99.90;;;;;;4866594;29;20496;-94
2021/07/05 18:23:40;;;;;;;2.83;0.70;;;19.10;99.90;;;;;;4867977;29;20464;-92
2021/07/05 18:26:07;;;;;;;1.42;0.60;;;19.00;99.90;;;;;;4867031;29;20432;-94
2021/07/05 18:28:35;;;;;;;2.20;0.73;;;18.90;99.90;;;;;;4867265;29;20432;-94
2021/07/05 18:31:03;;;;;;;1.65;0.60;;;18.80;99.90;;;;;;4866973;29;20433;-93
2021/07/05 18:33:32;;;;;;;1.70;0.70;;;18.80;99.90;;;;;;4866497;29;20432;-94
2021/07/05 18:35:59;;;;;;;1.45;0.60;;;18.80;99.90;;;;;;4866723;29;20831;-95
2021/07/05 18:38:33;;;;;;;1.10;0.65;;;18.80;99.90;;;;;;4870970;29;20504;-95
2021/07/05 18:41:15;;;;;;;1.90;0.70;;;18.90;99.90;;;;;;4875635;29;20436;-95
2021/07/05 18:43:48;;;;;;;1.50;0.68;;;18.70;99.90;;;;;;4878092;29;20433;-96
2021/07/05 18:46:23;;;;;;;136.20;4.97;;;18.70;99.90;;;;;;4886554;29;20926;-96
2021/07/05 18:48:52;;;;;;;3.03;0.77;;;18.60;99.90;;;;;;4876572;29;20429;-96
2021/07/05 18:51:19;;;;;;;2.78;0.70;;;18.60;99.90;;;;;;4872798;29;20973;-96
2021/07/05 18:53:49;;;;;;;2.00;0.70;;;18.50;99.90;;;;;;4871299;29;20582;-96
2021/07/05 18:56:19;;;;;;;30.23;1.37;;;18.40;99.90;;;;;;4874200;29;20985;-96
2021/07/05 18:58:55;;;;;;;2.10;0.60;;;18.30;99.90;;;;;;4873339;29;20459;-95
2021/07/05 19:01:27;;;;;;;1.95;0.70;;;18.30;99.90;;;;;;4890471;29;20437;-96
2021/07/05 19:04:14;;;;;;;1.60;0.70;;;18.30;99.90;;;;;;4861984;29;20444;-96
2021/07/05 19:06:45;;;;;;;4.10;0.80;;;18.20;99.90;;;;;;4887414;29;20435;-96
2021/07/05 19:12:04;;;;;;;23.10;1.35;;;18.10;99.90;;;;;;4851703;29;20504;-96
2021/07/05 19:14:47;;;;;;;2.20;0.60;;;18.00;99.90;;;;;;4834500;29;20484;-96
2021/07/05 19:17:57;;;;;;;20.33;1.48;;;17.90;99.90;;;;;;4852003;29;20484;-94
2021/07/05 19:20:38;;;;;;;1.20;0.60;;;17.80;99.90;;;;;;4834604;29;20436;-96
2021/07/05 19:23:06;;;;;;;1.80;0.60;;;17.70;99.90;;;;;;4855404;29;20447;-96
2021/07/05 19:25:58;;;;;;;0.80;0.60;;;17.70;99.90;;;;;;4853589;29;20516;-95
2021/07/05 19:28:38;;;;;;;1.17;0.70;;;17.80;99.90;;;;;;4854618;29;20436;-96
2021/07/05 19:31:27;;;;;;;2.53;0.70;;;17.80;99.90;;;;;;4840394;29;20507;-94
2021/07/05 19:33:59;;;;;;;1.10;0.60;;;17.80;99.90;;;;;;4855259;29;20500;-96
2021/07/05 19:37:04;;;;;;;1.35;0.60;;;17.70;99.90;;;;;;4826626;29;20465;-96
2021/07/05 19:39:35;;;;;;;1.60;0.60;;;17.70;99.90;;;;;;4829620;29;20442;-94
2021/07/05 19:42:59;;;;;;;3.20;0.65;;;17.70;99.90;;;;;;4829775;29;20412;-96
2021/07/05 19:45:55;;;;;;;1.25;0.60;;;17.70;99.90;;;;;;4857351;29;20505;-96
2021/07/05 19:48:28;;;;;;;1.15;0.60;;;17.60;99.90;;;;;;4853757;29;20530;-94
2021/07/05 19:51:40;;;;;;;1.05;0.68;;;17.60;99.90;;;;;;4816186;29;20417;-95
2021/07/05 19:55:14;;;;;;;2.28;0.70;;;17.50;99.90;;;;;;4798801;30;20927;-96
2021/07/05 19:58:28;;;;;;;3.25;0.85;;;17.30;99.90;;;;;;4800800;30;20508;-95
2021/07/05 20:01:13;;;;;;;1.58;0.80;;;17.20;99.90;;;;;;4768803;30;20491;-96
2021/07/05 20:04:36;;;;;;;2.15;0.90;;;17.20;99.90;;;;;;4763832;30;20441;-94
2021/07/05 20:08:04;;;;;;;1.60;0.70;;;17.10;99.90;;;;;;4733688;30;20482;-96
2021/07/05 20:20:52;;;;;;;1.17;0.85;;;16.60;99.90;;;;;;5237718;23;20449;-95
2021/07/05 20:24:13;;;;;;;3.65;0.80;;;16.40;99.90;;;;;;4864772;29;20540;-96
2021/07/05 20:56:40;;;;;;;2.05;0.70;;;15.40;99.90;;;;;;5646079;23;20383;31
2021/07/05 20:59:15;;;;;;;3.50;0.98;;;15.30;99.90;;;;;;4826473;29;20444;-95
2021/07/05 21:02:20;;;;;;;;;;;;;;;;;;;;;
2021/07/05 21:04:56;;;;;;;4.50;0.90;;;15.10;99.90;;;;;;4841203;29;20447;-96
2021/07/05 21:07:49;;;;;;;1.60;0.90;;;15.20;99.90;;;;;;4843213;29;20432;-96
2021/07/05 21:10:44;;;;;;;1.50;1.00;;;15.30;99.90;;;;;;4842376;29;20515;-96
2021/07/05 21:13:49;;;;;;;3.20;0.90;;;15.30;99.90;;;;;;4859712;29;20466;-95
2021/07/05 21:16:44;;;;;;;2.15;1.17;;;14.90;99.90;;;;;;4857143;29;20458;-96
2021/07/05 21:19:31;;;;;;;2.30;1.27;;;14.70;99.90;;;;;;4855054;29;20452;-95
2021/07/05 21:22:12;;;;;;;2.78;1.10;;;14.70;99.90;;;;;;4855185;29;20512;-96
2021/07/05 21:24:55;;;;;;;2.20;0.90;;;14.70;99.90;;;;;;4843381;29;20424;-95
2021/07/05 21:28:04;;;;;;;1.87;1.10;;;14.60;99.90;;;;;;4827494;29;20825;-96
2021/07/05 21:30:52;;;;;;;2.30;1.00;;;14.70;99.90;;;;;;4803109;30;20441;-96
2021/07/05 21:33:38;;;;;;;2.03;1.02;;;14.70;99.90;;;;;;4791398;30;20455;-96
2021/07/05 21:40:40;;;;;;;5.30;1.13;;;14.50;99.90;;;;;;4789249;30;20452;-95
2021/07/05 21:43:34;;;;;;;6.03;1.00;;;14.60;99.90;;;;;;4790481;30;20442;-95
2021/07/05 21:46:29;;;;;;;5.78;1.00;;;14.60;99.90;;;;;;4769956;30;20427;-96
2021/07/05 21:49:31;;;;;;;1.90;0.90;;;14.60;99.90;;;;;;4746817;30;20514;-96
2021/07/05 21:52:48;;;;;;;3.00;1.00;;;14.50;99.90;;;;;;4775737;30;20470;-96
2021/07/05 21:55:43;;;;;;;2.20;1.10;;;14.50;99.90;;;;;;4761662;30;20451;-95
2021/07/05 21:59:42;;;;;;;3.15;1.00;;;14.70;99.90;;;;;;4779702;30;20509;-96
2021/07/05 22:03:13;;;;;;;1.63;1.03;;;14.60;99.90;;;;;;4823407;29;20457;-96
2021/07/05 22:09:08;;;;;;;3.45;1.15;;;14.50;99.90;;;;;;4950227;23;20510;-95
2021/07/05 22:12:13;;;;;;;4.00;1.10;;;14.60;99.90;;;;;;4881045;29;20449;-96
2021/07/05 22:15:15;;;;;;;3.53;1.20;;;14.60;99.90;;;;;;4879116;29;20445;-96
2021/07/05 22:18:06;;;;;;;1.40;1.10;;;14.60;99.90;;;;;;4846359;29;20411;-96
2021/07/05 22:21:07;;;;;;;2.10;1.00;;;14.60;99.90;;;;;;4867010;29;20413;-96
2021/07/05 22:23:40;;;;;;;1.05;0.95;;;14.60;99.90;;;;;;4860823;29;20422;-95
2021/07/05 22:26:11;;;;;;;3.03;0.80;;;14.60;99.90;;;;;;4859104;29;20457;-96
2021/07/05 22:28:44;;;;;;;2.28;1.08;;;14.70;99.90;;;;;;4845406;29;20431;-96
2021/07/05 22:31:17;;;;;;;2.10;0.90;;;14.70;99.90;;;;;;4857512;29;20453;-96
2021/07/05 22:33:48;;;;;;;3.90;1.00;;;14.80;99.90;;;;;;4842247;29;20463;-96
2021/07/05 22:37:01;;;;;;;3.93;1.00;;;14.70;99.90;;;;;;4877889;29;20431;-96
2021/07/05 22:40:21;;;;;;;4.85;1.17;;;14.60;99.90;;;;;;4824315;29;20442;-96